14Y

Todd Field Airport

Long Prairie, Minnesota, USA
METAR K14Y 211535Z AUTO 15013G16KT 10SM SCT038 BKN046 OVC075 M16/M21 A3020 RMK AO2
Observed Flight Rules
Jan-21 @ 15:35 UTC (20 minutes ago) Visual Flight Rules
Wind Visibility Clouds
150° at 13 knots
 Gusting to 16 knots
10 miles
  • Scattered at 3,800' AGL
  • Broken at 4,600' AGL
  • Overcast at 7,500' AGL
Temperatures Readings
Current -16°C / 3°F
Dewpoint -21°C / -6°F
Humidity 66%
Altimeter 30.2" Hg
Pressure 1022.72 hPa
Elevation 406
METAR K14Y 211535Z AUTO 15013G16KT 10SM SCT038 BKN046 OVC075 M16/M21 A3020 RMK AO2
Observed Flight Rules
Jan-21 @ 15:35 UTC
(20 minutes ago)
VFR
Wind Visibility
150° at 13 knots
 Gusting to 16 knots
10 miles
Clouds
  • Scattered at 3,800' AGL
  • Broken at 4,600' AGL
  • Overcast at 7,500' AGL
Temperature Dewpoint
-16°C / 3°F -21°C / -6°F
Humidity Altimeter Pressure
66% 30.2" Hg 1022.72 hPa